createdAt,value
2022-12-08T00:00:27.428Z,97933.4
2022-12-08T00:06:02.812Z,97929.6
2022-12-08T00:11:38.174Z,97922.2
2022-12-08T00:17:14.439Z,97916
2022-12-08T00:22:49.726Z,97908.7
2022-12-08T00:28:32.559Z,97904.5
2022-12-08T00:34:07.580Z,97898.3
2022-12-08T00:39:46.190Z,97888.7
2022-12-08T00:46:50.981Z,97882.5
2022-12-08T00:52:24.704Z,97871.2
2022-12-08T00:58:21.215Z,97867.6
2022-12-08T01:04:08.327Z,97860
2022-12-08T01:09:44.679Z,97860.5
2022-12-08T01:15:19.709Z,97844.7
2022-12-08T01:20:54.739Z,97847.1
2022-12-08T01:26:31.113Z,97844.9
2022-12-08T01:32:26.864Z,97838.3
2022-12-08T01:38:03.258Z,97827.8
2022-12-08T01:43:38.318Z,97828.6
2022-12-08T01:49:35.209Z,97820.5
2022-12-08T01:55:10.055Z,97812.3
2022-12-08T02:00:46.139Z,97813.6
2022-12-08T02:06:21.310Z,97808.3
2022-12-08T02:12:21.068Z,97798.9
2022-12-08T02:17:56.944Z,97794.9
2022-12-08T02:23:34.440Z,97783.5
2022-12-08T02:29:09.638Z,97780.1
2022-12-08T02:35:02.577Z,97768.3
2022-12-08T02:40:38.613Z,97760.1
2022-12-08T02:47:22.100Z,97747.8
2022-12-08T02:52:55.009Z,97737
2022-12-08T02:58:56.922Z,97734.8
2022-12-08T03:04:33.340Z,97725.7
2022-12-08T03:10:13.390Z,97711.5
2022-12-08T03:16:17.642Z,97697.8
2022-12-08T03:21:56.221Z,97689.4
2022-12-08T03:27:57.905Z,97686.3
2022-12-08T03:33:32.865Z,97688.6
2022-12-08T03:39:13.283Z,97682.2
2022-12-08T03:44:48.415Z,97679.6
2022-12-08T03:50:23.780Z,97669.7
2022-12-08T03:55:59.366Z,97662.7
2022-12-08T04:01:35.528Z,97651.6
2022-12-08T04:07:11.544Z,97644.5
2022-12-08T04:12:47.493Z,97636.3
2022-12-08T04:18:22.717Z,97634
2022-12-08T04:24:02.263Z,97628.6
2022-12-08T04:29:37.602Z,97607.2
2022-12-08T04:35:13.496Z,97608.3
2022-12-08T04:40:56.028Z,97605.8
2022-12-08T04:46:53.407Z,97603.2
2022-12-08T04:52:27.769Z,97603.5
2022-12-08T04:58:10.647Z,97601.3
2022-12-08T05:03:54.742Z,97580.4
2022-12-08T05:09:29.547Z,97573.9
2022-12-08T05:15:04.776Z,97571.6
2022-12-08T05:20:39.688Z,97555.9
2022-12-08T05:26:14.825Z,97553.7
2022-12-08T05:31:51.893Z,97548.9
2022-12-08T05:37:28.401Z,97546.2
2022-12-08T05:43:03.650Z,97543
2022-12-08T05:49:00.360Z,97541.1
2022-12-08T05:54:34.444Z,97540
2022-12-08T06:00:10.089Z,97539.4
2022-12-08T06:05:55.485Z,97534
2022-12-08T06:11:30.734Z,97523.1
2022-12-08T06:17:17.399Z,97515.6
2022-12-08T06:22:52.353Z,97508.8
2022-12-08T06:28:27.570Z,97502
2022-12-08T06:34:09.293Z,97494.3
2022-12-08T06:39:44.796Z,97492.5
2022-12-08T06:45:19.856Z,97486.2
2022-12-08T06:50:58.971Z,97472.4
2022-12-08T06:56:44.047Z,97469.7
2022-12-08T07:02:40.033Z,97459.6
2022-12-08T07:08:16.649Z,97464.8
2022-12-08T07:13:52.346Z,97460.9
2022-12-08T07:19:27.939Z,97458.2
2022-12-08T07:25:03.373Z,97451.1
2022-12-08T07:30:39.866Z,97458.9
2022-12-08T07:36:17.304Z,97461.5
2022-12-08T07:41:52.531Z,97455.9
2022-12-08T07:47:49.237Z,97453.2
2022-12-08T07:53:22.214Z,97454.4
2022-12-08T07:58:58.687Z,97437
2022-12-08T08:04:35.644Z,97423
2022-12-08T08:10:11.301Z,97412.8
2022-12-08T08:15:51.117Z,97396.4
2022-12-08T08:21:46.918Z,97401.7
2022-12-08T08:27:22.218Z,97376.8
2022-12-08T08:33:00.962Z,97381.5
2022-12-08T08:38:36.142Z,97374.4
2022-12-08T08:44:11.649Z,97380.7
2022-12-08T08:49:47.576Z,97376.6
2022-12-08T08:55:23.042Z,97390.1
2022-12-08T09:00:58.193Z,97376.9
2022-12-08T09:06:35.472Z,97383.6
2022-12-08T09:12:10.844Z,97396.8
2022-12-08T09:17:46.378Z,97399.6
2022-12-08T09:23:22.009Z,97393
2022-12-08T09:28:57.342Z,97375.5
2022-12-08T09:34:33.407Z,97362.6
2022-12-08T09:40:08.762Z,97350
2022-12-08T09:45:47.135Z,97360.5
2022-12-08T09:51:22.849Z,97341.7
2022-12-08T09:56:57.682Z,97340.1
2022-12-08T10:02:32.808Z,97333.3
2022-12-08T10:08:13.627Z,97335.1
2022-12-08T10:14:11.222Z,97345
2022-12-08T10:19:47.587Z,97330.2
2022-12-08T10:25:23.245Z,97323.8
2022-12-08T10:30:59.944Z,97322.6
2022-12-08T10:36:36.134Z,97320
2022-12-08T10:42:15.682Z,97320.1
2022-12-08T10:48:12.561Z,97306.5
2022-12-08T10:53:53.200Z,97287.6
2022-12-08T10:59:56.975Z,97278.1
2022-12-08T11:05:39.193Z,97272
2022-12-08T11:11:49.698Z,97264.7
2022-12-08T11:17:28.225Z,97259.4
2022-12-08T11:23:06.778Z,97244.2
2022-12-08T11:28:41.951Z,97248.8
2022-12-08T11:34:17.306Z,97226.5
2022-12-08T11:40:00.088Z,97204.8
2022-12-08T11:45:37.615Z,97213.3
2022-12-08T11:51:12.999Z,97202.2
2022-12-08T11:57:00.763Z,97201.1
2022-12-08T12:02:47.633Z,97194.9
2022-12-08T12:08:24.347Z,97178.8
2022-12-08T12:13:59.887Z,97181.9
2022-12-08T12:19:35.741Z,97177.3
2022-12-08T12:25:36.391Z,97172.1
2022-12-08T12:31:25.509Z,97171.7
2022-12-08T12:37:18.501Z,97168.1
2022-12-08T12:43:01.009Z,97159.8
2022-12-08T12:48:58.174Z,97157.1
2022-12-08T12:54:31.135Z,97145.4
2022-12-08T13:00:09.096Z,97147.8
2022-12-08T13:05:46.900Z,97141.4
2022-12-08T13:11:22.316Z,97140.3
2022-12-08T13:16:58.612Z,97130.8
2022-12-08T13:22:34.963Z,97131.8
2022-12-08T13:28:18.005Z,97129.9
2022-12-08T13:33:53.377Z,97124.1
2022-12-08T13:39:29.019Z,97123.6
2022-12-08T13:47:17.094Z,97108.2
2022-12-08T14:02:50.285Z,97086.3
2022-12-08T14:09:10.599Z,97093.6
2022-12-08T14:15:05.674Z,97092.8
2022-12-08T14:21:22.214Z,97094.4
2022-12-08T14:26:57.762Z,97069.2
2022-12-08T14:32:34.056Z,97081
2022-12-08T14:38:10.061Z,97085.4
2022-12-08T14:43:45.580Z,97091.9
2022-12-08T14:49:20.578Z,97085.7
2022-12-08T14:54:55.724Z,97088.4
2022-12-08T15:00:38.380Z,97099.5
2022-12-08T15:06:14.083Z,97081.3
2022-12-08T15:12:01.797Z,97094.1
2022-12-08T15:17:40.208Z,97098
2022-12-08T15:23:15.789Z,97099.4
2022-12-08T15:28:56.706Z,97097.3
2022-12-08T15:34:31.721Z,97085.5
2022-12-08T15:40:08.929Z,97080.3
2022-12-08T15:46:00.616Z,97077.4
2022-12-08T15:51:45.319Z,97081
2022-12-08T15:58:56.766Z,97090.1
2022-12-08T16:05:49.969Z,97091.6
2022-12-08T16:14:33.823Z,97097.7
2022-12-08T16:23:07.886Z,97102.7
2022-12-08T16:29:21.204Z,97090.3
2022-12-08T16:34:56.662Z,97083.7
2022-12-08T16:40:49.466Z,97080
2022-12-08T16:46:47.133Z,97081.6
2022-12-08T16:52:20.083Z,97070.6
2022-12-08T16:58:16.220Z,97077.4
2022-12-08T17:04:32.228Z,97080.1
2022-12-08T17:10:09.697Z,97070.8
2022-12-08T17:15:44.795Z,97057.6
2022-12-08T17:21:24.036Z,97051.9
2022-12-08T17:27:04.033Z,97054.9
2022-12-08T17:33:05.630Z,97061.9
2022-12-08T17:38:40.962Z,97063.4
2022-12-08T17:44:15.922Z,97066
2022-12-08T17:49:52.121Z,97069.8
2022-12-08T17:55:32.310Z,97066.1
2022-12-08T18:01:08.088Z,97060.7
2022-12-08T18:06:43.788Z,97061.4
2022-12-08T18:12:24.528Z,97055.3
2022-12-08T18:18:00.016Z,97050.5
2022-12-08T18:23:35.009Z,97048.4
2022-12-08T18:29:10.911Z,97046.7
2022-12-08T18:34:46.233Z,97023.1
2022-12-08T18:40:21.199Z,97009.7
2022-12-08T18:45:56.738Z,97001.5
2022-12-08T18:51:32.783Z,96997.2
2022-12-08T18:57:07.849Z,97005.8
2022-12-08T19:02:43.742Z,97023.7
2022-12-08T19:08:19.564Z,97012.5
2022-12-08T19:14:06.347Z,97007.9
2022-12-08T19:19:41.301Z,96993.7
2022-12-08T19:25:16.376Z,96980.6
2022-12-08T19:30:51.579Z,96979.6
2022-12-08T19:36:27.128Z,96971.5
2022-12-08T19:42:03.456Z,96969.5
2022-12-08T19:47:41.064Z,96963.9
2022-12-08T19:53:21.024Z,96964.7
2022-12-08T19:58:56.724Z,96928
2022-12-08T20:04:31.720Z,96922.5
2022-12-08T20:10:12.881Z,96908.6
2022-12-08T20:15:55.295Z,96907.1
2022-12-08T20:21:37.671Z,96915.2
2022-12-08T20:27:21.681Z,96906.2
2022-12-08T20:33:02.578Z,96903.6
2022-12-08T20:38:45.597Z,96911.4
2022-12-08T20:44:29.839Z,96899.3
2022-12-08T20:50:07.732Z,96903.3
2022-12-08T20:55:46.882Z,96892.5
2022-12-08T21:01:24.528Z,96884.2
2022-12-08T21:07:48.006Z,96864.7
2022-12-08T21:13:26.716Z,96851.3
2022-12-08T21:19:03.662Z,96849.2
2022-12-08T21:24:39.799Z,96857.2
2022-12-08T21:30:21.757Z,96843.8
2022-12-08T21:36:00.690Z,96844.4
2022-12-08T21:41:58.790Z,96838.5
2022-12-08T21:47:46.323Z,96844.5
2022-12-08T21:53:27.194Z,96832.5
2022-12-08T21:59:03.582Z,96817
2022-12-08T22:04:48.871Z,96816.2
2022-12-08T22:10:27.403Z,96804.8
2022-12-08T22:16:03.740Z,96802.4
2022-12-08T22:21:41.128Z,96801.6
2022-12-08T22:27:18.499Z,96806.9
2022-12-08T22:32:57.853Z,96829.1
2022-12-08T22:38:33.651Z,96829.4
2022-12-08T22:44:09.205Z,96841.1
2022-12-08T22:50:08.100Z,96830.4
2022-12-08T22:55:48.032Z,96812.6
2022-12-08T23:01:24.556Z,96815.8
2022-12-08T23:07:11.592Z,96803.1
2022-12-08T23:12:47.874Z,96783.1
2022-12-08T23:18:23.997Z,96768.1
2022-12-08T23:24:00.423Z,96752.8
2022-12-08T23:29:36.377Z,96743.9
2022-12-08T23:35:13.164Z,96737.5
2022-12-08T23:40:49.874Z,96745.1
2022-12-08T23:46:47.950Z,96743
2022-12-08T23:52:23.997Z,96738.4
2022-12-08T23:58:01.129Z,96736.1
